Time;durP1;ratioP1;P1;durP2;ratioP2;P2;SDS_P1;SDS_P2;PMS_P1;PMS_P2;Temp;Humidity;BMP_temperature;BMP_pressure;BME280_temperature;BME280_humidity;BME280_pressure;Samples;Min_cycle;Max_cycle;Signal;HPM_P1;HPM_P2
2022/09/02 00:01:40;;;;;;;10.75;3.80;;;;;;;15.59;60.72;101506.16;5046387;28;20505;-67
2022/09/02 00:04:09;;;;;;;12.38;4.18;;;;;;;15.51;60.28;101492.91;5043286;28;20025;-69
2022/09/02 00:06:35;;;;;;;11.88;3.80;;;;;;;15.49;63.07;101500.03;5046326;28;20057;-67
2022/09/02 00:09:02;;;;;;;13.90;3.90;;;;;;;15.42;61.48;101508.03;5043854;28;20055;-69
2022/09/02 00:11:30;;;;;;;12.93;3.90;;;;;;;15.35;63.37;101501.88;5045424;28;20133;-69
2022/09/02 00:13:56;;;;;;;15.63;3.80;;;;;;;15.27;62.29;101493.03;5044735;28;20017;-69
2022/09/02 00:16:23;;;;;;;13.43;3.90;;;;;;;15.14;65.27;101493.09;5043981;28;20121;-69
2022/09/02 00:18:50;;;;;;;15.40;4.40;;;;;;;15.08;63.17;101498.44;5045481;28;20557;-69
2022/09/02 00:21:17;;;;;;;11.05;4.00;;;;;;;15.05;63.22;101489.59;5043547;28;20412;-69
2022/09/02 00:23:43;;;;;;;13.10;4.10;;;;;;;14.98;64.13;101489.63;5046167;28;20063;-67
2022/09/02 00:26:09;;;;;;;14.02;4.20;;;;;;;15.03;64.08;101488.69;5042782;28;20030;-67
2022/09/02 00:28:35;;;;;;;12.27;3.90;;;;;;;14.97;64.79;101485.19;5046220;28;20435;-67
2022/09/02 00:31:01;;;;;;;13.82;4.15;;;;;;;14.97;64.42;101484.31;5043435;28;20044;-69
2022/09/02 00:33:26;;;;;;;12.88;4.40;;;;;;;14.94;65.68;101473.63;5044773;28;20488;-69
2022/09/02 00:35:51;;;;;;;11.05;4.00;;;;;;;14.92;64.57;101483.41;5044773;28;20055;-68
2022/09/02 00:38:17;;;;;;;14.50;4.30;;;;;;;14.88;64.31;101482.56;5043132;28;20018;-69
2022/09/02 00:40:46;;;;;;;11.10;4.07;;;;;;;14.77;67.28;101479.03;5046222;28;20029;-69
2022/09/02 00:43:25;;;;;;;11.00;4.15;;;;;;;14.79;66.85;101479.91;5042424;28;20086;-69
2022/09/02 00:45:52;;;;;;;13.13;4.63;;;;;;;14.54;68.36;101485.25;5041032;28;20021;-68
2022/09/02 00:48:18;;;;;;;15.30;4.40;;;;;;;14.57;66.98;101477.25;5044949;28;20036;-69
2022/09/02 00:50:43;;;;;;;17.38;4.43;;;;;;;14.55;67.15;101475.53;5042645;28;20021;-63
2022/09/02 00:53:11;;;;;;;14.57;4.60;;;;;;;14.43;69.97;101477.31;5045661;28;20112;-63
2022/09/02 00:55:43;;;;;;;16.40;4.60;;;;;;;14.34;70.49;101474.63;5041791;28;20485;-61
2022/09/02 00:58:24;;;;;;;12.93;4.20;;;;;;;14.45;67.92;101477.31;5038522;28;20121;-60
2022/09/02 01:00:55;;;;;;;11.05;4.00;;;;;;;14.37;70.32;101471.09;5040766;28;20040;-63
2022/09/02 01:03:21;;;;;;;16.63;4.10;;;;;;;14.42;68.45;101472.00;5044478;28;20431;-63
2022/09/02 01:05:49;;;;;;;16.13;4.30;;;;;;;14.34;68.54;101474.63;5042795;28;20017;-61
2022/09/02 01:08:24;;;;;;;16.15;4.30;;;;;;;14.27;70.75;101465.81;5045262;28;20090;-60
2022/09/02 01:10:53;;;;;;;14.23;4.35;;;;;;;14.26;69.41;101468.47;5042821;28;20022;-61
2022/09/02 01:13:24;;;;;;;12.40;4.10;;;;;;;14.32;69.59;101464.91;5043030;28;20079;-62
2022/09/02 01:15:57;;;;;;;14.95;4.45;;;;;;;14.25;70.36;101459.56;5042041;28;20084;-60
2022/09/02 01:18:29;;;;;;;12.10;4.40;;;;;;;14.26;69.29;101461.34;5043843;28;20028;-64
2022/09/02 01:20:59;;;;;;;14.35;4.60;;;;;;;14.24;70.12;101455.16;5043550;28;20029;-64
2022/09/02 01:23:27;;;;;;;13.55;4.38;;;;;;;14.13;71.47;101462.25;5043361;28;20025;-63
2022/09/02 01:25:53;;;;;;;13.95;4.45;;;;;;;14.06;71.78;101465.81;5042839;28;20081;-63
2022/09/02 01:28:19;;;;;;;12.52;4.70;;;;;;;14.12;70.34;101465.81;5044212;28;20483;-63
2022/09/02 01:30:48;;;;;;;16.02;4.70;;;;;;;14.17;71.84;101461.38;5042040;28;20029;-64
2022/09/02 01:33:15;;;;;;;13.82;4.60;;;;;;;14.18;70.16;101465.78;5044762;28;20108;-61
2022/09/02 01:35:41;;;;;;;13.38;4.43;;;;;;;14.08;72.90;101462.28;5041968;28;20029;-62
2022/09/02 01:38:06;;;;;;;14.25;4.55;;;;;;;14.05;71.17;101461.38;5044839;28;20381;-64
2022/09/02 01:40:32;;;;;;;15.82;4.70;;;;;;;14.01;72.17;101454.28;5042537;28;20021;-64
2022/09/02 01:43:11;;;;;;;15.68;4.88;;;;;;;13.85;72.72;101456.94;5043485;28;20091;-63
2022/09/02 01:45:38;;;;;;;12.63;4.70;;;;;;;13.78;74.00;101456.03;5041658;28;20030;-62
2022/09/02 01:48:06;;;;;;;15.82;4.80;;;;;;;13.84;73.18;101454.28;5044081;28;20102;-62
2022/09/02 01:50:32;;;;;;;14.10;4.97;;;;;;;13.69;76.34;101445.44;5042089;28;20032;-63
2022/09/02 01:53:00;;;;;;;15.27;5.05;;;;;;;13.61;76.59;101444.50;5043392;28;20030;-61
2022/09/02 01:55:26;;;;;;;14.77;4.80;;;;;;;13.62;75.55;101442.78;5042535;28;20111;-64
2022/09/02 01:57:51;;;;;;;15.65;5.15;;;;;;;13.59;76.93;101449.84;5042017;28;20121;-62
2022/09/02 02:00:16;;;;;;;16.35;5.10;;;;;;;13.65;75.87;101443.63;5044186;28;20033;-64
2022/09/02 02:02:42;;;;;;;17.15;5.35;;;;;;;13.66;75.42;101445.44;5040992;28;20056;-64
2022/09/02 02:05:07;;;;;;;14.60;5.00;;;;;;;13.64;76.67;101441.84;5044335;28;20044;-64
2022/09/02 02:07:32;;;;;;;13.65;5.00;;;;;;;13.62;76.96;101442.78;5041681;28;20128;-64
2022/09/02 02:09:58;;;;;;;14.82;4.93;;;;;;;13.68;74.44;101448.97;5042648;28;20029;-64
2022/09/02 02:12:23;;;;;;;15.55;5.00;;;;;;;13.64;74.42;101443.63;5043095;28;20029;-64
2022/09/02 02:14:49;;;;;;;16.90;5.30;;;;;;;13.61;76.11;101436.53;5041548;28;20030;-63
2022/09/02 02:17:14;;;;;;;13.57;4.78;;;;;;;13.61;76.08;101439.19;5044261;28;20036;-63
2022/09/02 02:19:40;;;;;;;14.75;4.95;;;;;;;13.60;77.03;101442.72;5041167;28;20056;-65
2022/09/02 02:22:06;;;;;;;15.27;5.10;;;;;;;13.48;78.07;101446.25;5043732;28;20060;-66
2022/09/02 02:24:31;;;;;;;15.50;4.90;;;;;;;13.53;78.09;101441.84;5041569;28;20499;-66
2022/09/02 02:26:57;;;;;;;16.80;5.00;;;;;;;13.53;77.24;101441.84;5042732;28;20025;-64
2022/09/02 02:29:22;;;;;;;16.23;5.28;;;;;;;13.51;78.50;101440.94;5042879;28;20472;-65
2022/09/02 02:31:48;;;;;;;13.48;5.00;;;;;;;13.64;77.00;101441.84;5041295;28;20465;-66
2022/09/02 02:34:13;;;;;;;13.68;4.90;;;;;;;13.61;76.22;101433.91;5044508;28;20102;-66
2022/09/02 02:36:39;;;;;;;15.88;5.30;;;;;;;13.58;78.05;101437.41;5040520;28;20084;-67
2022/09/02 02:39:08;;;;;;;15.25;4.93;;;;;;;13.69;75.72;101439.19;5043352;28;20026;-66
2022/09/02 02:41:34;;;;;;;15.93;5.35;;;;;;;13.75;77.22;101442.75;5041401;28;20052;-65
2022/09/02 02:43:59;;;;;;;14.38;4.63;;;;;;;13.79;75.55;101438.34;5042713;28;20052;-65
2022/09/02 02:46:25;;;;;;;15.55;5.20;;;;;;;13.75;75.88;101439.22;5042604;28;20047;-66
2022/09/02 02:48:50;;;;;;;15.27;4.97;;;;;;;13.69;75.57;101431.22;5041512;28;20025;-66
2022/09/02 02:51:15;;;;;;;14.57;5.30;;;;;;;13.63;76.16;101431.25;5043576;28;20111;-66
2022/09/02 02:53:41;;;;;;;15.68;5.25;;;;;;;13.64;75.38;101427.72;5040899;28;20028;-66
2022/09/02 02:56:07;;;;;;;15.38;5.07;;;;;;;13.64;75.58;101422.38;5043249;28;20523;-67
2022/09/02 02:58:33;;;;;;;15.27;5.40;;;;;;;13.62;77.15;101433.03;5041532;28;20162;-65
2022/09/02 03:00:59;;;;;;;16.70;5.30;;;;;;;13.60;76.70;101425.03;5042591;28;20028;-64
2022/09/02 03:03:25;;;;;;;13.88;5.10;;;;;;;13.61;76.59;101423.25;5042442;28;20407;-69
2022/09/02 03:05:51;;;;;;;16.67;5.10;;;;;;;13.59;75.41;101423.25;5041278;28;20036;-68
2022/09/02 03:08:20;;;;;;;15.18;5.05;;;;;;;13.63;76.00;101423.25;5043435;28;20021;-69
2022/09/02 03:10:53;;;;;;;13.93;5.25;;;;;;;13.57;79.20;101425.03;5040448;28;20373;-69
2022/09/02 03:13:19;;;;;;;15.02;5.30;;;;;;;13.62;78.68;101426.84;5042963;28;20025;-69
2022/09/02 03:15:44;;;;;;;15.52;4.88;;;;;;;13.57;77.39;101422.38;5040452;28;20033;-66
2022/09/02 03:18:09;;;;;;;15.18;5.07;;;;;;;13.60;78.38;101413.50;5044119;28;20116;-69
2022/09/02 03:20:35;;;;;;;17.65;5.50;;;;;;;13.56;78.97;101425.91;5040721;28;20065;-69
2022/09/02 03:23:00;;;;;;;16.20;5.05;;;;;;;13.56;78.05;101417.97;5042662;28;20041;-69
2022/09/02 03:25:29;;;;;;;17.13;5.57;;;;;;;13.57;77.50;101419.75;5042001;28;20078;-69
2022/09/02 03:27:55;;;;;;;15.65;5.30;;;;;;;13.57;76.86;101416.16;5041614;28;20021;-68
2022/09/02 03:30:24;;;;;;;16.17;5.20;;;;;;;13.54;77.60;101418.81;5042832;28;20033;-68
2022/09/02 03:32:50;;;;;;;16.13;5.38;;;;;;;13.52;77.03;101417.97;5039919;28;20029;-67
2022/09/02 03:35:17;;;;;;;14.88;5.35;;;;;;;13.48;76.48;101417.03;5043207;28;20095;-69
2022/09/02 03:37:44;;;;;;;14.70;5.10;;;;;;;13.44;76.58;101415.31;5041170;28;20095;-69
2022/09/02 03:40:12;;;;;;;15.52;5.32;;;;;;;13.35;79.81;101417.91;5039910;28;20487;-69
2022/09/02 03:42:38;;;;;;;17.42;5.55;;;;;;;13.30;78.76;101415.22;5046658;28;20472;-69
2022/09/02 03:45:05;;;;;;;15.13;5.40;;;;;;;13.21;78.38;101405.47;5044486;28;20032;-63
2022/09/02 03:47:31;;;;;;;17.38;5.70;;;;;;;13.18;78.36;101415.22;5045867;28;20068;-60
2022/09/02 03:49:57;;;;;;;18.00;5.45;;;;;;;13.16;78.23;101401.91;5045142;28;20052;-62
2022/09/02 03:52:23;;;;;;;15.43;5.40;;;;;;;13.08;79.52;101409.84;5044672;28;20036;-62
2022/09/02 03:54:48;;;;;;;16.65;5.70;;;;;;;13.03;80.14;101408.06;5045915;28;20060;-64
2022/09/02 03:57:14;;;;;;;19.05;5.50;;;;;;;13.01;79.36;101399.22;5043435;28;20026;-63
2022/09/02 03:59:39;;;;;;;18.67;5.72;;;;;;;12.97;82.00;101400.97;5039491;28;20493;-61
2022/09/02 04:02:05;;;;;;;18.05;5.75;;;;;;;12.97;82.62;101402.75;5046024;28;20108;-64
2022/09/02 04:04:30;;;;;;;16.70;5.88;;;;;;;12.91;81.61;101400.94;5044643;28;20072;-63
2022/09/02 04:06:57;;;;;;;16.42;5.50;;;;;;;12.85;81.08;101395.63;5044752;28;20491;-61
2022/09/02 04:09:22;;;;;;;16.73;5.78;;;;;;;12.79;81.63;101396.50;5045157;28;20040;-61
2022/09/02 04:11:48;;;;;;;16.65;6.00;;;;;;;12.77;84.19;101397.34;5043457;28;20037;-63
2022/09/02 04:14:13;;;;;;;17.45;5.90;;;;;;;12.67;86.73;101393.81;5046605;28;20540;-63
2022/09/02 04:16:39;;;;;;;16.33;5.50;;;;;;;12.67;84.80;101397.34;5043081;28;20488;-61
2022/09/02 04:19:04;;;;;;;18.67;6.05;;;;;;;12.67;84.60;101388.50;5045517;28;20029;-64
2022/09/02 04:21:35;;;;;;;17.33;6.03;;;;;;;12.67;84.55;101394.69;5044586;28;20024;-63
2022/09/02 04:24:00;;;;;;;16.65;6.07;;;;;;;12.62;87.90;101387.56;5045221;28;20111;-61
2022/09/02 04:26:26;;;;;;;18.48;6.50;;;;;;;12.64;85.75;101391.09;5044831;28;20113;-64
2022/09/02 04:28:52;;;;;;;18.35;6.15;;;;;;;12.61;87.72;101391.09;5044088;28;20041;-62
2022/09/02 04:31:20;;;;;;;18.73;6.18;;;;;;;12.59;86.39;101384.91;5045677;28;20025;-65
2022/09/02 04:33:46;;;;;;;16.30;5.93;;;;;;;12.60;85.19;101381.38;5042625;28;20032;-64
2022/09/02 04:36:14;;;;;;;17.10;5.93;;;;;;;12.63;85.40;101386.72;5046411;28;20058;-61
2022/09/02 04:38:40;;;;;;;19.08;6.20;;;;;;;12.57;86.47;101384.91;5038344;28;20025;-63
2022/09/02 04:41:08;;;;;;;19.30;6.03;;;;;;;12.65;85.79;101385.81;5045202;28;20032;-64
2022/09/02 04:43:34;;;;;;;19.70;6.03;;;;;;;12.70;85.45;101380.56;5043516;28;20048;-63
2022/09/02 04:46:00;;;;;;;18.98;6.20;;;;;;;12.80;86.79;101387.66;5044328;28;20057;-62
2022/09/02 04:48:26;;;;;;;18.50;5.95;;;;;;;12.85;85.18;101390.31;5044051;28;20017;-64
2022/09/02 04:50:51;;;;;;;18.95;6.15;;;;;;;12.93;85.07;101385.94;5042321;28;20030;-65
2022/09/02 04:53:17;;;;;;;18.67;6.07;;;;;;;13.00;84.94;101384.19;5045475;28;20029;-63
2022/09/02 04:55:42;;;;;;;17.25;6.07;;;;;;;13.01;84.04;101385.97;5040573;28;20057;-64
2022/09/02 04:58:09;;;;;;;17.85;6.20;;;;;;;13.09;83.61;101389.50;5045579;28;20028;-63
2022/09/02 05:00:37;;;;;;;19.55;6.13;;;;;;;13.15;83.94;101384.22;5042795;28;20037;-67
2022/09/02 05:03:04;;;;;;;18.95;6.07;;;;;;;13.21;83.45;101378.94;5044442;28;20030;-68
2022/09/02 05:05:29;;;;;;;17.60;6.00;;;;;;;13.29;82.99;101380.72;5043886;28;20075;-68
2022/09/02 05:07:55;;;;;;;18.20;6.30;;;;;;;13.36;84.88;101386.06;5043172;28;20408;-68
2022/09/02 05:10:20;;;;;;;19.45;6.00;;;;;;;13.45;83.15;101386.97;5044406;28;20017;-66
2022/09/02 05:12:46;;;;;;;19.40;6.07;;;;;;;13.48;82.40;101382.53;5042044;28;20368;-67
2022/09/02 05:15:12;;;;;;;19.98;6.30;;;;;;;13.49;82.50;101386.97;5044929;28;20361;-69
2022/09/02 05:17:37;;;;;;;17.83;5.82;;;;;;;13.56;81.98;101386.09;5042403;28;20029;-69
2022/09/02 05:20:05;;;;;;;17.20;5.90;;;;;;;13.62;82.33;101382.53;5044154;28;20056;-68
2022/09/02 05:22:31;;;;;;;19.33;6.25;;;;;;;13.63;82.12;101392.28;5043015;28;20032;-69
2022/09/02 05:24:57;;;;;;;19.80;6.18;;;;;;;13.71;82.14;101386.97;5043289;28;20079;-69
2022/09/02 05:27:24;;;;;;;17.63;5.97;;;;;;;13.73;82.32;101391.41;5044271;28;20068;-67
2022/09/02 05:29:49;;;;;;;19.48;6.10;;;;;;;13.81;81.96;101385.22;5042138;28;20029;-68
2022/09/02 05:32:15;;;;;;;18.52;6.05;;;;;;;13.83;82.18;101384.28;5045069;28;20025;-68
2022/09/02 05:34:40;;;;;;;19.50;6.18;;;;;;;13.88;81.37;101393.16;5041483;28;20017;-67
2022/09/02 05:37:06;;;;;;;20.10;6.20;;;;;;;13.93;81.72;101393.16;5044130;28;20029;-67
2022/09/02 05:39:33;;;;;;;18.38;6.30;;;;;;;13.97;81.09;101388.75;5042636;28;20021;-67
2022/09/02 05:41:59;;;;;;;22.55;6.32;;;;;;;14.06;81.41;101381.63;5043336;28;20021;-69
2022/09/02 05:44:24;;;;;;;18.60;6.20;;;;;;;14.11;80.89;101387.81;5043513;28;20065;-67
2022/09/02 05:46:50;;;;;;;18.35;6.10;;;;;;;14.18;80.82;101391.34;5042059;28;20049;-67
2022/09/02 05:49:20;;;;;;;18.25;6.32;;;;;;;14.25;80.48;101387.78;5044948;28;20120;-67
2022/09/02 05:51:48;;;;;;;19.15;6.00;;;;;;;14.35;79.96;101390.44;5039821;28;20025;-67
2022/09/02 05:54:20;;;;;;;20.00;6.63;;;;;;;14.40;79.68;101396.63;5037503;28;20087;-68
2022/09/02 05:56:49;;;;;;;19.67;6.20;;;;;;;14.43;79.12;101389.53;5037582;28;20032;-67
2022/09/02 05:59:15;;;;;;;21.17;7.03;;;;;;;14.46;78.63;101391.31;5036376;28;20195;-60
2022/09/02 06:01:41;;;;;;;19.50;6.78;;;;;;;14.51;79.05;101389.50;5031656;28;20116;-59
2022/09/02 06:04:07;;;;;;;20.13;7.10;;;;;;;14.59;78.73;101384.13;5032334;28;20025;-60
2022/09/02 06:06:37;;;;;;;19.58;7.47;;;;;;;14.63;78.70;101384.19;5034732;28;20029;-59
2022/09/02 06:09:04;;;;;;;21.70;7.50;;;;;;;14.68;78.92;101388.56;5032084;28;20025;-59
2022/09/02 06:11:29;;;;;;;21.88;7.80;;;;;;;14.70;78.11;101378.81;5033105;28;20033;-60
2022/09/02 06:13:56;;;;;;;20.25;7.57;;;;;;;14.77;78.44;101377.91;5031863;28;20075;-59
2022/09/02 06:16:22;;;;;;;22.25;8.32;;;;;;;14.80;77.89;101386.75;5032924;28;20071;-59
2022/09/02 06:18:48;;;;;;;21.80;8.48;;;;;;;14.88;77.77;101385.84;5032695;28;20473;-60
2022/09/02 06:21:15;;;;;;;21.88;8.50;;;;;;;14.92;77.91;101388.47;5030782;28;20405;-59
2022/09/02 06:23:40;;;;;;;22.42;8.77;;;;;;;15.01;77.91;101387.53;5031870;28;20068;-59
2022/09/02 06:26:08;;;;;;;23.70;8.77;;;;;;;15.08;76.97;101381.28;5035232;28;20053;-59
2022/09/02 06:28:34;;;;;;;23.02;9.10;;;;;;;15.20;76.81;101387.44;5035821;28;20107;-59
2022/09/02 06:31:05;;;;;;;23.73;9.07;;;;;;;15.29;76.50;101385.59;5031670;28;20021;-59
2022/09/02 06:33:30;;;;;;;22.35;9.70;;;;;;;15.37;76.41;101387.34;5035759;28;20075;-60
2022/09/02 06:35:56;;;;;;;23.65;9.90;;;;;;;15.38;75.29;101382.00;5031593;28;20128;-60
2022/09/02 06:38:21;;;;;;;27.85;10.52;;;;;;;15.44;75.33;101379.28;5035044;28;20112;-59
2022/09/02 06:40:50;;;;;;;25.85;11.23;;;;;;;15.50;74.86;101386.34;5031132;28;20025;-61
2022/09/02 06:43:15;;;;;;;29.20;11.40;;;;;;;15.61;74.17;101388.91;5032119;28;20144;-59
2022/09/02 06:45:42;;;;;;;25.70;12.20;;;;;;;15.74;73.06;101387.03;5030168;28;20069;-59
2022/09/02 06:48:08;;;;;;;26.33;11.70;;;;;;;15.84;73.67;101379.00;5036151;28;20152;-59
2022/09/02 06:50:37;;;;;;;26.83;11.50;;;;;;;15.98;72.59;101378.84;5031288;28;20026;-59
2022/09/02 06:53:05;;;;;;;28.08;12.13;;;;;;;16.06;71.16;101383.22;5032932;28;20037;-60
2022/09/02 06:55:34;;;;;;;29.63;12.57;;;;;;;16.13;70.28;101379.59;5030820;28;20541;-59
2022/09/02 06:57:59;;;;;;;27.08;12.32;;;;;;;16.20;70.63;101379.50;5035054;28;20087;-60
2022/09/02 07:00:24;;;;;;;26.70;12.40;;;;;;;16.28;69.71;101376.78;5033674;28;20437;-59
2022/09/02 07:05:08;;;;;;;28.17;12.63;;;;;;;16.41;69.63;101376.63;5031425;28;20036;-59
2022/09/02 07:05:35;;;;;;;26.60;12.10;;;;;;;16.49;68.83;101374.78;5033339;28;20107;-60
2022/09/02 07:08:00;;;;;;;29.75;14.15;;;;;;;16.62;67.96;101371.03;5035173;28;20026;-61
2022/09/02 07:10:25;;;;;;;28.30;14.07;;;;;;;16.79;67.26;101372.59;5035359;28;20026;-61
2022/09/02 07:12:51;;;;;;;27.45;12.30;;;;;;;16.90;66.72;101363.59;5032469;28;20416;-60
2022/09/02 07:15:16;;;;;;;30.73;14.10;;;;;;;16.97;65.67;101359.06;5037335;28;20017;-60
2022/09/02 07:17:41;;;;;;;30.80;14.38;;;;;;;17.12;65.81;101367.75;5034750;28;20064;-61
2022/09/02 07:20:07;;;;;;;28.80;14.10;;;;;;;17.22;64.13;101366.72;5037346;28;20476;-60
2022/09/02 07:22:32;;;;;;;30.60;14.70;;;;;;;17.31;63.16;101363.88;5035085;28;20039;-60
2022/09/02 07:24:58;;;;;;;32.40;15.82;;;;;;;17.40;63.05;101361.09;5036162;28;20033;-60
2022/09/02 07:27:23;;;;;;;30.27;15.27;;;;;;;17.47;62.45;101361.84;5034910;28;20096;-60
2022/09/02 07:29:49;;;;;;;30.77;15.68;;;;;;;17.53;62.31;101363.53;5034678;28;20464;-60
2022/09/02 07:32:15;;;;;;;30.25;15.38;;;;;;;17.63;63.12;101359.81;5033646;28;20021;-61
2022/09/02 07:34:41;;;;;;;32.70;16.02;;;;;;;17.73;62.55;101363.22;5039813;28;20029;-59
2022/09/02 07:37:07;;;;;;;30.00;14.90;;;;;;;17.76;62.45;101361.38;5034906;28;20032;-60
2022/09/02 07:39:32;;;;;;;32.60;15.40;;;;;;;17.87;61.52;101358.50;5033231;28;20056;-61
2022/09/02 07:41:58;;;;;;;32.20;15.82;;;;;;;17.98;61.14;101360.16;5035762;28;20026;-59
2022/09/02 07:44:23;;;;;;;31.38;15.38;;;;;;;18.07;61.93;101358.19;5034455;28;20591;-60
2022/09/02 07:46:49;;;;;;;32.95;15.95;;;;;;;18.17;60.34;101358.88;5036223;28;20063;-60
2022/09/02 07:49:16;;;;;;;30.95;15.98;;;;;;;18.22;60.42;101361.50;5034438;28;20104;-65
2022/09/02 07:51:45;;;;;;;31.58;15.48;;;;;;;18.28;60.24;101362.22;5034536;28;20037;-64
2022/09/02 07:54:11;;;;;;;32.08;16.33;;;;;;;18.43;60.10;101358.38;5037739;28;20061;-64
2022/09/02 07:56:37;;;;;;;33.95;16.58;;;;;;;18.54;59.30;101352.81;5036031;28;20116;-65
2022/09/02 07:59:03;;;;;;;31.77;16.52;;;;;;;18.61;58.69;101358.91;5038542;28;20121;-62
2022/09/02 08:01:28;;;;;;;31.70;15.82;;;;;;;18.68;58.24;101357.84;5044926;28;20026;-63
2022/09/02 08:03:54;;;;;;;32.65;16.30;;;;;;;18.84;57.74;101354.84;5045722;28;20075;-63
2022/09/02 08:06:22;;;;;;;31.70;16.00;;;;;;;19.01;57.99;101355.41;5043644;28;20603;-65
2022/09/02 08:08:48;;;;;;;35.65;17.55;;;;;;;19.04;55.74;101358.00;5046715;28;20388;-65
2022/09/02 08:11:13;;;;;;;33.70;17.23;;;;;;;19.10;56.46;101360.53;5043094;28;20055;-62
2022/09/02 08:13:39;;;;;;;31.88;15.82;;;;;;;19.16;56.29;101357.72;5046064;28;20021;-61
2022/09/02 08:16:05;;;;;;;33.75;16.35;;;;;;;19.25;56.23;101353.97;5044022;28;20017;-63
2022/09/02 08:18:31;;;;;;;33.83;17.83;;;;;;;19.35;54.78;101351.91;5044763;28;20021;-61
2022/09/02 08:20:56;;;;;;;33.67;16.58;;;;;;;19.51;56.72;101353.31;5045098;28;20436;-64
2022/09/02 08:23:21;;;;;;;32.40;17.48;;;;;;;19.62;55.15;101352.16;5042964;28;20036;-62
2022/09/02 08:25:47;;;;;;;33.95;16.95;;;;;;;19.69;54.62;101349.28;5046069;28;20052;-64
2022/09/02 08:28:13;;;;;;;34.35;17.35;;;;;;;19.76;53.81;101349.13;5042013;28;20124;-61
2022/09/02 08:30:38;;;;;;;34.10;17.10;;;;;;;19.89;53.83;101350.59;5045457;28;20041;-64
2022/09/02 08:33:04;;;;;;;32.40;16.85;;;;;;;20.02;53.45;101335.03;5043715;28;20017;-65
2022/09/02 08:35:30;;;;;;;36.35;16.83;;;;;;;20.24;52.74;101334.44;5043566;28;20025;-61
2022/09/02 08:37:58;;;;;;;33.40;16.52;;;;;;;20.44;51.99;101341.94;5044344;28;20017;-60
2022/09/02 08:40:30;;;;;;;34.97;16.80;;;;;;;20.54;51.15;101338.94;5042985;28;20075;-61
2022/09/02 08:42:56;;;;;;;34.20;16.90;;;;;;;20.72;50.95;101336.66;5044450;28;20064;-61
2022/09/02 08:45:37;;;;;;;30.80;16.40;;;;;;;20.90;50.86;101335.22;5044546;28;20056;-60
2022/09/02 08:48:31;;;;;;;32.08;16.63;;;;;;;21.04;51.06;101337.47;5045352;28;20361;-61
2022/09/02 08:51:04;;;;;;;32.58;16.65;;;;;;;20.99;49.71;101334.94;5043007;28;20025;-61
2022/09/02 08:53:45;;;;;;;34.03;17.15;;;;;;;21.10;50.68;101336.41;5043302;28;20025;-62
2022/09/02 08:56:14;;;;;;;34.95;17.15;;;;;;;21.21;50.02;101342.31;5038462;28;20041;-61
2022/09/02 08:58:45;;;;;;;34.95;17.83;;;;;;;21.27;49.79;101341.25;5038514;28;20041;-68
2022/09/02 09:01:30;;;;;;;37.83;17.85;;;;;;;21.47;50.42;101335.22;5038654;28;20520;-69
2022/09/02 09:04:05;;;;;;;34.22;17.92;;;;;;;21.51;48.66;101336.88;5042534;28;20059;-69
2022/09/02 09:06:30;;;;;;;33.95;17.67;;;;;;;21.63;49.99;101338.28;5043227;28;20033;-69
2022/09/02 09:09:25;;;;;;;34.75;17.95;;;;;;;21.74;48.87;101338.78;5043721;28;20063;-69
2022/09/02 09:12:00;;;;;;;38.35;17.65;;;;;;;21.62;48.53;101340.09;5040930;28;20029;-69
2022/09/02 09:14:39;;;;;;;35.47;18.17;;;;;;;21.65;48.98;101350.72;5043347;28;20491;-70
2022/09/02 09:17:21;;;;;;;35.85;17.77;;;;;;;21.67;47.99;101348.00;5044678;28;20075;-69
2022/09/02 09:19:54;;;;;;;35.80;17.53;;;;;;;21.77;48.59;101346.78;5039494;28;20026;-69
2022/09/02 09:22:36;;;;;;;33.05;17.05;;;;;;;21.79;47.62;101342.22;5044174;28;20096;-69
2022/09/02 09:25:06;;;;;;;33.40;16.73;;;;;;;21.87;47.71;101339.25;5044551;28;20033;-69
2022/09/02 09:27:31;;;;;;;33.92;15.43;;;;;;;21.88;47.39;101336.50;5042309;28;20041;-69
2022/09/02 09:29:57;;;;;;;31.85;15.93;;;;;;;22.01;47.13;101341.47;5039777;28;20025;-69
2022/09/02 09:32:32;;;;;;;34.20;15.98;;;;;;;22.13;46.97;101338.31;5042790;28;20027;-69
2022/09/02 09:35:13;;;;;;;35.15;15.65;;;;;;;22.37;46.29;101327.63;5040656;28;20037;-70
2022/09/02 09:37:45;;;;;;;31.35;15.88;;;;;;;22.48;45.64;101330.78;5037048;28;20037;-70
2022/09/02 09:40:19;;;;;;;33.08;15.65;;;;;;;22.61;45.73;101328.50;5037424;28;20056;-60
2022/09/02 09:43:09;;;;;;;37.78;15.90;;;;;;;22.75;45.07;101323.44;5038292;28;20373;-63
2022/09/02 09:45:37;;;;;;;34.90;15.25;;;;;;;22.94;44.46;101317.34;4999953;28;20486;-61
2022/09/02 09:48:10;;;;;;;29.63;13.57;;;;;;;23.17;44.44;101324.53;5002414;28;20038;-60
2022/09/02 09:50:35;;;;;;;28.88;12.52;;;;;;;23.44;43.10;101321.63;4999964;28;20547;-65
2022/09/02 09:53:16;;;;;;;27.27;11.80;;;;;;;23.80;42.98;101327.25;5001992;28;20109;-61
2022/09/02 09:55:56;;;;;;;26.58;11.93;;;;;;;24.01;42.22;101324.59;4999318;28;20054;-62
2022/09/02 09:58:26;;;;;;;25.77;9.43;;;;;;;24.26;41.53;101313.56;4998505;28;20034;-60
2022/09/02 10:00:55;;;;;;;19.77;5.55;;;;;;;24.25;40.11;101311.81;5001834;28;20060;-63
2022/09/02 10:03:24;;;;;;;17.70;5.40;;;;;;;24.48;39.91;101307.16;5000628;28;20046;-61
2022/09/02 10:05:56;;;;;;;17.02;5.05;;;;;;;24.67;39.90;101305.38;5001961;28;20440;-61
2022/09/02 10:08:25;;;;;;;19.05;5.10;;;;;;;25.19;39.09;101304.69;5000442;28;20030;-62
2022/09/02 10:11:05;;;;;;;16.40;4.90;;;;;;;25.75;37.72;101305.47;5001919;28;20037;-63
2022/09/02 10:13:36;;;;;;;17.52;4.63;;;;;;;25.93;37.20;101302.75;4985325;28;20161;-61
2022/09/02 10:16:11;;;;;;;14.07;4.20;;;;;;;26.40;36.50;101303.88;5000078;28;20189;-60
2022/09/02 10:18:48;;;;;;;12.50;3.95;;;;;;;26.99;34.73;101301.50;5002459;28;20176;-63
2022/09/02 10:21:35;;;;;;;14.77;3.83;;;;;;;27.88;34.08;101302.63;4995736;28;20482;-61
2022/09/02 10:24:52;;;;;;;17.83;3.90;;;;;;;29.07;32.46;101292.38;5041837;28;20021;-60
2022/09/02 10:27:27;;;;;;;15.35;3.80;;;;;;;30.29;30.06;101284.03;5016608;28;20486;-62
2022/09/02 10:30:05;;;;;;;14.20;3.60;;;;;;;31.00;29.39;101284.34;5020902;28;20034;-63
2022/09/02 10:32:55;;;;;;;13.70;3.60;;;;;;;31.03;27.82;101292.28;5020827;28;20033;-66
2022/09/02 10:35:42;;;;;;;16.15;3.50;;;;;;;31.45;28.33;101284.53;5017176;28;20034;-63
2022/09/02 10:38:10;;;;;;;11.38;3.47;;;;;;;31.56;26.28;101284.63;5018678;28;20041;-64
2022/09/02 10:40:45;;;;;;;12.70;3.55;;;;;;;32.31;26.57;101280.53;5021645;28;20174;-61
2022/09/02 10:43:27;;;;;;;15.50;3.63;;;;;;;32.64;25.41;101272.44;5018619;28;20037;-62
2022/09/02 10:45:59;;;;;;;14.70;3.40;;;;;;;32.31;25.29;101269.59;5019979;28;20088;-63
2022/09/02 10:48:27;;;;;;;13.80;3.35;;;;;;;32.41;23.75;101271.59;5024260;28;20030;-64
2022/09/02 10:51:14;;;;;;;12.77;3.35;;;;;;;32.03;24.81;101261.84;5023683;28;20096;-60
2022/09/02 10:53:58;;;;;;;17.48;3.53;;;;;;;32.01;25.73;101259.25;5022577;28;20037;-64
2022/09/02 10:56:28;;;;;;;16.42;3.47;;;;;;;31.87;24.72;101271.28;5023655;28;20057;-62
2022/09/02 10:58:53;;;;;;;18.27;3.50;;;;;;;31.49;24.29;101266.94;5024433;28;20148;-62
2022/09/02 11:01:33;;;;;;;13.43;3.30;;;;;;;32.20;24.13;101269.59;5023340;28;20597;-61
2022/09/02 11:04:08;;;;;;;12.25;3.22;;;;;;;32.83;23.19;101258.97;5037633;28;20064;-66
2022/09/02 11:06:39;;;;;;;15.07;3.40;;;;;;;33.26;22.73;101264.56;5046960;28;20052;-65
2022/09/02 11:09:20;;;;;;;10.40;3.15;;;;;;;33.68;22.63;101262.75;5044777;28;20026;-67
2022/09/02 11:11:54;;;;;;;10.48;3.30;;;;;;;34.01;21.92;101254.44;5041289;28;20137;-66
2022/09/02 11:14:31;;;;;;;13.30;3.30;;;;;;;34.85;21.23;101243.22;5046626;28;20029;-66
2022/09/02 11:17:03;;;;;;;10.02;3.13;;;;;;;35.41;20.92;101246.28;5046052;28;20030;-67
2022/09/02 11:19:45;;;;;;;13.85;3.28;;;;;;;35.10;20.85;101243.66;5045641;28;20029;-68
2022/09/02 11:22:48;;;;;;;15.70;3.20;;;;;;;35.37;20.86;101240.22;5040243;28;20025;-66